createdAt,value
2022-09-23T00:04:29.869Z,98830.02
2022-09-23T00:09:36.309Z,98818.71
2022-09-23T00:14:42.506Z,98818.64
2022-09-23T00:19:48.700Z,98821.15
2022-09-23T00:24:54.935Z,98810.77
2022-09-23T00:30:01.185Z,98811.17
2022-09-23T00:35:09.209Z,98803.45
2022-09-23T00:40:15.496Z,98800.71
2022-09-23T00:45:21.705Z,98796.55
2022-09-23T00:50:30.775Z,98791.81
2022-09-23T00:55:39.475Z,98793.71
2022-09-23T01:00:46.778Z,98792.37
2022-09-23T01:05:53.315Z,98793.09
2022-09-23T01:11:04.437Z,98788.60
2022-09-23T01:16:14.802Z,98788.99
2022-09-23T01:21:27.086Z,98785.29
2022-09-23T01:26:42.358Z,98786.80
2022-09-23T01:31:53.548Z,98787.81
2022-09-23T01:37:04.426Z,98785.62
2022-09-23T01:42:17.290Z,98785.70
2022-09-23T01:47:25.245Z,98784.82
2022-09-23T01:52:34.179Z,98778.93
2022-09-23T01:57:42.033Z,98781.69
2022-09-23T02:02:51.289Z,98785.30
2022-09-23T02:08:00.220Z,98780.27
2022-09-23T02:13:10.111Z,98781.45
2022-09-23T02:18:18.336Z,98770.38
2022-09-23T02:23:26.846Z,98768.95
2022-09-23T02:28:34.453Z,98771.64
2022-09-23T02:33:45.224Z,98767.46
2022-09-23T02:38:54.509Z,98762.74
2022-09-23T02:44:03.326Z,98764.55
2022-09-23T02:49:12.926Z,98769.83
2022-09-23T02:54:20.702Z,98772.88
2022-09-23T02:59:26.900Z,98773.13
2022-09-23T03:04:36.730Z,98777.21
2022-09-23T03:09:48.811Z,98777.84
2022-09-23T03:14:56.526Z,98774.39
2022-09-23T03:20:04.701Z,98776.42
2022-09-23T03:25:13.905Z,98774.70
2022-09-23T03:30:22.071Z,98769.29
2022-09-23T03:35:29.621Z,98771.00
2022-09-23T03:40:38.629Z,98776.04
2022-09-23T03:45:45.390Z,98777.23
2022-09-23T03:50:51.592Z,98771.41
2022-09-23T03:55:58.749Z,98772.51
2022-09-23T04:01:06.138Z,98771.65
2022-09-23T04:06:12.687Z,98767.23
2022-09-23T04:11:19.051Z,98764.95
2022-09-23T04:16:25.811Z,98767.94
2022-09-23T04:21:32.285Z,98765.35
2022-09-23T04:26:38.974Z,98764.81
2022-09-23T04:31:45.291Z,98763.86
2022-09-23T04:36:52.345Z,98763.79
2022-09-23T04:41:58.871Z,98764.96
2022-09-23T04:47:05.707Z,98763.48
2022-09-23T04:52:12.431Z,98762.69
2022-09-23T04:57:19.121Z,98764.73
2022-09-23T05:02:25.830Z,98765.42
2022-09-23T05:07:32.161Z,98760.09
2022-09-23T05:12:38.564Z,98767.55
2022-09-23T05:17:45.145Z,98773.45
2022-09-23T05:22:53.107Z,98776.92
2022-09-23T05:27:59.641Z,98781.37
2022-09-23T05:33:05.901Z,98785.28
2022-09-23T05:38:12.283Z,98788.02
2022-09-23T05:43:18.711Z,98784.63
2022-09-23T05:48:25.211Z,98787.70
2022-09-23T05:53:31.794Z,98784.52
2022-09-23T05:58:38.956Z,98787.35
2022-09-23T06:03:47.491Z,98781.75
2022-09-23T06:08:54.241Z,98783.55
2022-09-23T06:14:02.841Z,98783.13
2022-09-23T06:19:10.819Z,98787.38
2022-09-23T06:24:21.232Z,98795.38
2022-09-23T06:29:31.546Z,98794.34
2022-09-23T06:34:50.244Z,98795.11
2022-09-23T06:39:58.254Z,98796.90
2022-09-23T06:45:04.516Z,98800.36
2022-09-23T06:50:12.751Z,98801.70
2022-09-23T06:55:19.133Z,98803.59
2022-09-23T07:00:25.637Z,98804.06
2022-09-23T07:05:32.087Z,98809.02
2022-09-23T07:10:38.851Z,98807.21
2022-09-23T07:15:51.130Z,98805.08
2022-09-23T07:20:59.183Z,98805.54
2022-09-23T07:26:06.231Z,98807.52
2022-09-23T07:31:13.821Z,98804.52
2022-09-23T07:36:20.863Z,98808.23
2022-09-23T07:41:29.171Z,98811.38
2022-09-23T07:46:36.793Z,98818.46
2022-09-23T07:51:46.421Z,98816.64
2022-09-23T07:56:53.041Z,98814.05
2022-09-23T08:01:59.692Z,98813.00
2022-09-23T08:07:06.953Z,98808.98
2022-09-23T08:12:16.403Z,98814.66
2022-09-23T08:17:22.722Z,98813.84
2022-09-23T08:22:29.195Z,98815.20
2022-09-23T08:27:35.833Z,98809.36
2022-09-23T08:32:42.466Z,98806.84
2022-09-23T08:37:49.321Z,98802.98
2022-09-23T08:42:55.925Z,98800.08
2022-09-23T08:48:10.790Z,98797.26
2022-09-23T08:53:25.452Z,98797.48
2022-09-23T08:58:42.568Z,98797.89
2022-09-23T09:03:50.609Z,98799.38
2022-09-23T09:08:58.672Z,98795.21
2022-09-23T09:14:12.668Z,98794.42
2022-09-23T09:19:20.682Z,98796.95
2022-09-23T09:24:29.952Z,98794.52
2022-09-23T09:29:40.252Z,98794.27
2022-09-23T09:34:54.488Z,98790.49
2022-09-23T09:40:01.322Z,98785.14
2022-09-23T09:45:13.432Z,98778.64
2022-09-23T09:50:22.483Z,98772.55
2022-09-23T09:55:30.028Z,98763.54
2022-09-23T10:00:44.868Z,98763.13
2022-09-23T10:05:52.566Z,98757.89
2022-09-23T10:11:03.651Z,98751.90
2022-09-23T10:16:10.512Z,98748.79
2022-09-23T10:21:17.993Z,98745.94
2022-09-23T10:26:31.242Z,98740.80
2022-09-23T10:31:38.693Z,98731.89
2022-09-23T10:36:45.203Z,98727.28
2022-09-23T10:42:12.896Z,98731.52
2022-09-23T10:47:23.938Z,98732.48
2022-09-23T10:52:36.601Z,98732.33
2022-09-23T10:57:52.587Z,98728.72
2022-09-23T11:03:10.064Z,98728.65
2022-09-23T11:08:36.757Z,98721.95
2022-09-23T11:13:54.601Z,98717.63
2022-09-23T11:19:32.622Z,98717.70
2022-09-23T11:24:52.480Z,98705.74
2022-09-23T11:30:06.353Z,98698.83
2022-09-23T11:35:20.810Z,98693.47
2022-09-23T11:40:32.444Z,98691.58
2022-09-23T11:45:42.733Z,98690.88
2022-09-23T11:50:52.066Z,98691.27
2022-09-23T11:56:02.540Z,98681.60
2022-09-23T12:01:10.905Z,98678.27
2022-09-23T12:06:20.924Z,98667.75
2022-09-23T12:11:57.134Z,98667.91
2022-09-23T12:17:16.921Z,98659.41
2022-09-23T12:22:31.776Z,98651.92
2022-09-23T12:33:56.348Z,98643.91
2022-09-23T12:39:04.231Z,98634.30
2022-09-23T12:50:51.191Z,98621.11
2022-09-23T12:56:00.090Z,98617.31
2022-09-23T13:07:16.754Z,98607.23
2022-09-23T13:12:26.640Z,98610.30
2022-09-23T13:17:35.188Z,98602.81
2022-09-23T13:28:56.526Z,98595.20
2022-09-23T13:34:04.629Z,98589.63
2022-09-23T13:39:17.556Z,98586.79
2022-09-23T13:50:35.164Z,98570.58
2022-09-23T13:55:41.845Z,98572.23
2022-09-23T14:00:48.515Z,98572.41
2022-09-23T14:06:31.494Z,98568.15
2022-09-23T14:11:38.217Z,98561.23
2022-09-23T14:16:45.051Z,98553.36
2022-09-23T14:21:53.278Z,98548.78
2022-09-23T14:33:12.295Z,98545.16
2022-09-23T14:38:42.556Z,98543.44
2022-09-23T14:50:11.608Z,98542.09
2022-09-23T14:59:34.574Z,98532.55
2022-09-23T15:11:08.439Z,98528.33
2022-09-23T15:16:17.135Z,98527.06
2022-09-23T15:21:24.116Z,98528.64
2022-09-23T15:26:49.394Z,98528.16
2022-09-23T15:31:56.280Z,98529.69
2022-09-23T15:37:03.426Z,98530.06
2022-09-23T15:42:10.722Z,98531.02
2022-09-23T15:53:55.252Z,98521.74
2022-09-23T15:59:02.056Z,98522.38
2022-09-23T16:04:08.763Z,98517.51
2022-09-23T16:09:31.958Z,98518.13
2022-09-23T16:14:38.371Z,98518.66
2022-09-23T16:19:45.008Z,98515.77
2022-09-23T16:24:51.835Z,98519.45
2022-09-23T16:35:45.988Z,98522.85
2022-09-23T16:40:53.312Z,98522.95
2022-09-23T16:46:00.251Z,98519.17
2022-09-23T16:57:21.571Z,98515.33
2022-09-23T17:02:45.563Z,98512.73
2022-09-23T17:07:51.954Z,98516.74
2022-09-23T17:13:22.184Z,98517.85
2022-09-23T17:18:29.019Z,98509.13
2022-09-23T17:23:36.192Z,98508.63
2022-09-23T17:28:42.591Z,98511.71
2022-09-23T17:40:00.571Z,98512.42
2022-09-23T17:45:07.491Z,98520.37
2022-09-23T17:50:15.202Z,98519.17
2022-09-23T17:55:54.420Z,98523.98
2022-09-23T18:02:30.352Z,98522.31
2022-09-23T18:07:39.550Z,98523.92
2022-09-23T18:13:15.729Z,98522.41
2022-09-23T18:18:22.210Z,98526.53
2022-09-23T18:23:28.651Z,98526.53
2022-09-23T18:34:22.011Z,98529.45
2022-09-23T18:39:28.393Z,98527.33
2022-09-23T18:44:34.763Z,98525.98
2022-09-23T18:49:58.671Z,98528.27
2022-09-23T19:01:14.605Z,98522.90
2022-09-23T19:06:21.387Z,98524.02
2022-09-23T19:17:55.014Z,98526.95
2022-09-23T19:23:01.812Z,98528.73
2022-09-23T19:28:08.662Z,98528.20
2022-09-23T19:39:24.469Z,98520.84
2022-09-23T19:44:31.092Z,98520.98
2022-09-23T19:56:03.563Z,98526.86
2022-09-23T20:01:10.222Z,98517.36
2022-09-23T20:06:17.302Z,98516.16
2022-09-23T20:12:00.591Z,98513.42
2022-09-23T20:17:13.971Z,98512.48
2022-09-23T20:22:30.807Z,98514.04
2022-09-23T20:27:39.652Z,98504.91
2022-09-23T20:32:45.968Z,98505.56
2022-09-23T20:38:32.952Z,98502.98
2022-09-23T20:43:40.111Z,98497.08
2022-09-23T20:48:47.853Z,98496.05
2022-09-23T20:53:54.609Z,98492.83
2022-09-23T20:59:33.302Z,98488.18
2022-09-23T21:04:39.745Z,98482.68
2022-09-23T21:09:46.189Z,98481.49
2022-09-23T21:14:52.931Z,98489.75
2022-09-23T21:20:02.125Z,98497.40
2022-09-23T21:25:41.160Z,98494.56
2022-09-23T21:30:51.819Z,98491.59
2022-09-23T21:36:04.062Z,98493.15
2022-09-23T21:41:11.899Z,98487.81
2022-09-23T21:46:55.077Z,98490.89
2022-09-23T21:52:01.723Z,98491.36
2022-09-23T21:57:08.521Z,98495.05
2022-09-23T22:02:15.005Z,98499.54
2022-09-23T22:07:48.193Z,98506.05
2022-09-23T22:12:54.433Z,98506.94
2022-09-23T22:18:00.951Z,98505.29
2022-09-23T22:23:07.971Z,98504.58
2022-09-23T22:34:51.106Z,98504.97
2022-09-23T22:39:58.270Z,98505.83
2022-09-23T22:45:20.487Z,98493.81
2022-09-23T22:50:27.105Z,98487.66
2022-09-23T22:55:33.544Z,98488.23
2022-09-23T23:00:40.131Z,98485.34
2022-09-23T23:05:47.481Z,98487.67
2022-09-23T23:17:09.645Z,98488.25
2022-09-23T23:22:16.121Z,98489.81
2022-09-23T23:27:22.487Z,98489.41
2022-09-23T23:32:55.415Z,98481.71
2022-09-23T23:38:01.855Z,98477.16
2022-09-23T23:43:08.280Z,98472.45
2022-09-23T23:48:14.859Z,98467.64
2022-09-23T23:59:25.180Z,98460.25
